Time;durP1;ratioP1;P1;durP2;ratioP2;P2;SDS_P1;SDS_P2;PMS_P1;PMS_P2;Temp;Humidity;BMP_temperature;BMP_pressure;BME280_temperature;BME280_humidity;BME280_pressure;Samples;Min_cycle;Max_cycle;Signal;HPM_P1;HPM_P2
2023/01/01 00:01:38;;;;;;;11.80;5.30;;;;;;;;;;5058305;28;20427;-57
2023/01/01 00:04:04;;;;;;;23.08;5.88;;;;;;;;;;5057067;28;20089;-57
2023/01/01 00:06:29;;;;;;;10.93;5.07;;;;;;;;;;5057971;28;20422;-57
2023/01/01 00:11:39;;;;;;;13.18;6.03;;;;;;;;;;5057538;28;20048;-58
2023/01/01 00:14:04;;;;;;;17.80;5.07;;;;;;;;;;5056850;28;20313;-58
2023/01/01 00:16:29;;;;;;;11.68;4.00;;;;;;;;;;5057522;28;20024;-58
2023/01/01 00:18:55;;;;;;;12.68;4.93;;;;;;;;;;5057450;28;20024;-58
2023/01/01 00:21:20;;;;;;;12.80;4.28;;;;;;;;;;5058044;28;20142;-58
2023/01/01 00:23:45;;;;;;;13.23;4.45;;;;;;;;;;5057019;28;20149;-58
2023/01/01 00:26:13;;;;;;;10.63;4.30;;;;;;;;;;5057052;28;20025;-58
2023/01/01 00:28:38;;;;;;;9.38;4.15;;;;;;;;;;5057567;28;20481;-57
2023/01/01 00:31:07;;;;;;;12.45;4.75;;;;;;;;;;5057300;28;20197;-58
2023/01/01 00:33:32;;;;;;;10.13;4.50;;;;;;;;;;5057787;28;20367;-58
2023/01/01 00:36:04;;;;;;;9.65;4.00;;;;;;;;;;5056769;28;20055;-58
2023/01/01 00:38:29;;;;;;;11.20;4.57;;;;;;;;;;5057248;28;20103;-57
2023/01/01 00:40:54;;;;;;;15.43;5.32;;;;;;;;;;5056536;28;20486;-57
2023/01/01 00:43:19;;;;;;;11.05;4.63;;;;;;;;;;5053220;28;20453;-57
2023/01/01 00:45:47;;;;;;;9.82;4.57;;;;;;;;;;5057241;28;20025;-58
2023/01/01 00:48:12;;;;;;;10.30;4.65;;;;;;;;;;5054589;28;20085;-57
2023/01/01 00:50:38;;;;;;;11.45;5.30;;;;;;;;;;5058263;28;20719;-57
2023/01/01 00:53:03;;;;;;;11.10;4.95;;;;;;;;;;5055345;28;20407;-58
2023/01/01 00:55:28;;;;;;;14.40;5.97;;;;;;;;;;5056610;28;20528;-57
2023/01/01 00:57:53;;;;;;;15.85;5.30;;;;;;;;;;5071908;28;20528;-58
2023/01/01 01:00:19;;;;;;;10.90;5.20;;;;;;;;;;5057134;28;20108;-59
2023/01/01 01:02:44;;;;;;;15.00;5.60;;;;;;;;;;5056477;28;20332;-58
2023/01/01 01:05:09;;;;;;;12.55;5.07;;;;;;;;;;5054448;28;20383;-58
2023/01/01 01:07:35;;;;;;;12.18;5.40;;;;;;;;;;5054777;28;20474;-57
2023/01/01 01:10:00;;;;;;;14.38;6.57;;;;;;;;;;5056960;28;20687;-57
2023/01/01 01:12:25;;;;;;;19.70;6.35;;;;;;;;;;5056595;28;20517;-57
2023/01/01 01:14:50;;;;;;;13.95;5.55;;;;;;;;;;5057666;28;20411;-57
2023/01/01 01:17:16;;;;;;;14.88;5.55;;;;;;;;;;5057103;28;20012;-57
2023/01/01 01:19:41;;;;;;;11.55;5.57;;;;;;;;;;5057302;28;20470;-57
2023/01/01 01:22:06;;;;;;;11.93;5.63;;;;;;;;;;5057280;28;20029;-58
2023/01/01 01:24:31;;;;;;;10.95;5.60;;;;;;;;;;5057196;28;20081;-57
2023/01/01 01:26:57;;;;;;;11.68;5.60;;;;;;;;;;5056610;28;20043;-57
2023/01/01 01:29:22;;;;;;;20.55;6.25;;;;;;;;;;5054764;28;20036;-58
2023/01/01 01:31:48;;;;;;;13.23;6.10;;;;;;;;;;5055730;28;20377;-58
2023/01/01 01:34:14;;;;;;;13.90;5.75;;;;;;;;;;5057370;28;20039;-58
2023/01/01 01:36:39;;;;;;;15.38;6.45;;;;;;;;;;5056597;28;20029;-58
2023/01/01 01:39:05;;;;;;;22.05;6.85;;;;;;;;;;5056802;28;20353;-58
2023/01/01 01:41:30;;;;;;;13.55;6.75;;;;;;;;;;5053718;28;20029;-57
2023/01/01 01:44:02;;;;;;;14.85;6.88;;;;;;;;;;5054455;28;20086;-57
2023/01/01 01:46:31;;;;;;;25.85;7.18;;;;;;;;;;5051671;28;20078;-58
2023/01/01 01:48:58;;;;;;;15.27;6.63;;;;;;;;;;5056756;28;20541;-57
2023/01/01 01:51:26;;;;;;;19.85;7.05;;;;;;;;;;5051262;28;20048;-57
2023/01/01 01:53:53;;;;;;;16.67;6.93;;;;;;;;;;5055584;28;20024;-57
2023/01/01 01:56:19;;;;;;;14.98;7.20;;;;;;;;;;5057507;28;20062;-58
2023/01/01 01:58:44;;;;;;;14.82;7.05;;;;;;;;;;5060613;28;20028;-57
2023/01/01 02:01:10;;;;;;;17.23;6.95;;;;;;;;;;5058128;28;20390;-58
2023/01/01 02:03:46;;;;;;;14.20;6.25;;;;;;;;;;5060575;28;20035;-58
2023/01/01 02:06:12;;;;;;;17.17;6.55;;;;;;;;;;5057395;28;20040;-57
2023/01/01 02:08:37;;;;;;;14.52;5.88;;;;;;;;;;5059833;28;20039;-57
2023/01/01 02:11:02;;;;;;;17.48;6.18;;;;;;;;;;5060149;28;20368;-57
2023/01/01 02:13:27;;;;;;;14.98;6.40;;;;;;;;;;5059465;28;20060;-57
2023/01/01 02:15:56;;;;;;;18.20;6.47;;;;;;;;;;5058677;28;20355;-59
2023/01/01 02:18:25;;;;;;;13.25;5.90;;;;;;;;;;5059454;28;20051;-57
2023/01/01 02:21:04;;;;;;;11.93;5.30;;;;;;;;;;5058323;28;20103;-57
2023/01/01 02:23:29;;;;;;;14.15;6.88;;;;;;;;;;5057899;28;20309;-57
2023/01/01 02:26:02;;;;;;;16.38;6.13;;;;;;;;;;5059280;28;20089;-58
2023/01/01 02:28:46;;;;;;;12.80;5.70;;;;;;;;;;5057301;28;20385;-57
2023/01/01 02:31:12;;;;;;;15.85;5.70;;;;;;;;;;5058896;28;20414;-58
2023/01/01 02:33:38;;;;;;;13.05;5.25;;;;;;;;;;5057949;28;20627;-57
2023/01/01 02:36:03;;;;;;;16.83;5.75;;;;;;;;;;5057143;28;20032;-57
2023/01/01 02:38:28;;;;;;;11.30;5.05;;;;;;;;;;5059673;28;20021;-57
2023/01/01 02:40:54;;;;;;;12.55;5.13;;;;;;;;;;5058584;28;20047;-58
2023/01/01 02:43:20;;;;;;;9.68;4.88;;;;;;;;;;5053106;28;20075;-57
2023/01/01 02:45:45;;;;;;;11.88;5.20;;;;;;;;;;5059162;28;20756;-58
2023/01/01 02:48:29;;;;;;;12.20;4.28;;;;;;;;;;5058800;28;20497;-58
2023/01/01 02:50:54;;;;;;;13.48;4.75;;;;;;;;;;5058786;28;20036;-58
2023/01/01 02:53:28;;;;;;;12.70;4.20;;;;;;;;;;5059188;28;20047;-57
2023/01/01 02:56:20;;;;;;;11.30;4.63;;;;;;;;;;5054724;28;20025;-59
2023/01/01 03:01:50;;;;;;;13.63;4.93;;;;;;;;;;5013462;28;20037;-59
2023/01/01 03:04:21;;;;;;;16.13;5.27;;;;;;;;;;5072998;28;20112;-58
2023/01/01 03:06:49;;;;;;;9.57;4.78;;;;;;;;;;5056665;28;20293;-58
2023/01/01 03:09:33;;;;;;;12.98;4.95;;;;;;;;;;5058033;28;20147;-58
2023/01/01 03:11:58;;;;;;;11.77;5.35;;;;;;;;;;5058301;28;20033;-58
2023/01/01 03:15:00;;;;;;;16.08;5.82;;;;;;;;;;5058522;28;20031;-58
2023/01/01 03:17:25;;;;;;;8.90;4.10;;;;;;;;;;5034969;28;20032;-57
2023/01/01 03:19:51;;;;;;;11.93;5.47;;;;;;;;;;5053352;28;20141;-58
2023/01/01 03:22:16;;;;;;;14.48;4.75;;;;;;;;;;5055974;28;20857;-58
2023/01/01 03:24:48;;;;;;;12.73;4.93;;;;;;;;;;5054295;28;20099;-57
2023/01/01 03:27:13;;;;;;;13.43;4.75;;;;;;;;;;5058241;28;20265;-58
2023/01/01 03:29:39;;;;;;;10.90;4.60;;;;;;;;;;5058293;28;20025;-57
2023/01/01 03:32:05;;;;;;;14.35;4.68;;;;;;;;;;5056877;28;20364;-57
2023/01/01 03:34:37;;;;;;;10.20;4.63;;;;;;;;;;5058780;28;20050;-58
2023/01/01 03:37:06;;;;;;;9.27;4.28;;;;;;;;;;5057162;28;20479;-57
2023/01/01 03:39:35;;;;;;;9.80;4.53;;;;;;;;;;5056195;28;20358;-57
2023/01/01 03:42:01;;;;;;;7.40;4.50;;;;;;;;;;5054721;28;20032;-57
2023/01/01 03:44:26;;;;;;;12.38;4.55;;;;;;;;;;5054234;28;20070;-57
2023/01/01 03:46:51;;;;;;;18.98;5.28;;;;;;;;;;5056486;28;20324;-59
2023/01/01 03:49:19;;;;;;;8.25;4.20;;;;;;;;;;5057732;28;20212;-59
2023/01/01 03:51:44;;;;;;;10.57;4.20;;;;;;;;;;5052909;28;20036;-57
2023/01/01 03:54:15;;;;;;;14.48;4.78;;;;;;;;;;5058247;28;20039;-57
2023/01/01 03:56:44;;;;;;;10.40;4.43;;;;;;;;;;5055237;28;20391;-57
2023/01/01 03:59:36;;;;;;;8.75;4.70;;;;;;;;;;5039344;28;20117;-57
2023/01/01 04:02:01;;;;;;;8.27;3.85;;;;;;;;;;5052087;28;20035;-57
2023/01/01 04:04:26;;;;;;;10.23;4.32;;;;;;;;;;5057161;28;20028;-57
2023/01/01 04:06:52;;;;;;;11.80;3.92;;;;;;;;;;5055381;28;20348;-57
2023/01/01 04:09:18;;;;;;;13.57;4.13;;;;;;;;;;5056180;28;20028;-59
2023/01/01 04:14:28;;;;;;;14.65;4.47;;;;;;;;;;5056314;28;20086;-59
2023/01/01 04:16:54;;;;;;;11.77;4.28;;;;;;;;;;5057146;28;20382;-58
2023/01/01 04:19:19;;;;;;;9.52;4.22;;;;;;;;;;5057549;28;20024;-58
2023/01/01 04:21:44;;;;;;;12.10;4.25;;;;;;;;;;5057091;28;20021;-58
2023/01/01 04:24:10;;;;;;;11.20;4.53;;;;;;;;;;5056371;28;20402;-59
2023/01/01 04:26:35;;;;;;;11.85;3.92;;;;;;;;;;5056287;28;20048;-57
2023/01/01 04:29:00;;;;;;;10.82;4.20;;;;;;;;;;5054783;28;20039;-58
2023/01/01 04:31:25;;;;;;;11.82;3.95;;;;;;;;;;5057382;28;20036;-59
2023/01/01 04:33:53;;;;;;;12.20;4.25;;;;;;;;;;5057334;28;20684;-59
2023/01/01 04:36:19;;;;;;;16.77;5.50;;;;;;;;;;5056694;28;20542;-59
2023/01/01 04:38:44;;;;;;;11.43;3.97;;;;;;;;;;5055073;28;20105;-58
2023/01/01 04:41:09;;;;;;;18.75;4.22;;;;;;;;;;5053680;28;20037;-58
2023/01/01 04:43:34;;;;;;;9.15;3.92;;;;;;;;;;5050049;28;20041;-58
2023/01/01 04:46:00;;;;;;;11.10;4.10;;;;;;;;;;5057483;28;20034;-58
2023/01/01 04:48:25;;;;;;;11.38;4.10;;;;;;;;;;5056726;28;20769;-58
2023/01/01 04:50:54;;;;;;;14.70;4.22;;;;;;;;;;5057601;28;20900;-58
2023/01/01 04:53:20;;;;;;;10.55;3.67;;;;;;;;;;5057643;28;20040;-58
2023/01/01 04:55:45;;;;;;;12.77;3.92;;;;;;;;;;5055368;28;20054;-58
2023/01/01 04:58:10;;;;;;;14.45;4.10;;;;;;;;;;5056878;28;20031;-58
2023/01/01 05:00:35;;;;;;;7.45;3.50;;;;;;;;;;5057121;28;20063;-58
2023/01/01 05:03:01;;;;;;;11.50;4.47;;;;;;;;;;5056685;28;20488;-58
2023/01/01 05:05:26;;;;;;;11.10;3.92;;;;;;;;;;5055866;28;20013;-58
2023/01/01 05:07:51;;;;;;;10.85;3.75;;;;;;;;;;5056528;28;20423;-57
2023/01/01 05:10:16;;;;;;;6.97;3.67;;;;;;;;;;5055838;28;20431;-58
2023/01/01 05:12:41;;;;;;;11.27;3.75;;;;;;;;;;5054141;28;20113;-58
2023/01/01 05:15:07;;;;;;;13.07;3.92;;;;;;;;;;5056397;28;20430;-58
2023/01/01 05:17:32;;;;;;;10.00;4.15;;;;;;;;;;5056987;28;20545;-58
2023/01/01 05:19:59;;;;;;;19.65;4.20;;;;;;;;;;5056185;28;20028;-58
2023/01/01 05:22:24;;;;;;;8.82;3.75;;;;;;;;;;5057062;28;20024;-58
2023/01/01 05:24:49;;;;;;;10.70;3.83;;;;;;;;;;5055323;28;20426;-59
2023/01/01 05:27:14;;;;;;;11.48;3.67;;;;;;;;;;5057120;28;20379;-58
2023/01/01 05:29:40;;;;;;;10.57;3.88;;;;;;;;;;5054779;28;20402;-58
2023/01/01 05:32:05;;;;;;;11.52;3.80;;;;;;;;;;5058795;28;20391;-58
2023/01/01 05:34:30;;;;;;;10.38;3.08;;;;;;;;;;5060252;28;20046;-58
2023/01/01 05:36:56;;;;;;;9.75;4.45;;;;;;;;;;5060854;28;20051;-59
2023/01/01 05:39:21;;;;;;;7.60;3.60;;;;;;;;;;5060518;28;20082;-58
2023/01/01 05:41:46;;;;;;;8.55;3.92;;;;;;;;;;5055661;28;20016;-59
2023/01/01 05:44:11;;;;;;;15.18;4.30;;;;;;;;;;5054930;28;20768;-59
2023/01/01 05:46:37;;;;;;;10.52;3.90;;;;;;;;;;5060077;28;20040;-58
2023/01/01 05:49:02;;;;;;;10.20;3.90;;;;;;;;;;5059816;28;20339;-58
2023/01/01 05:51:27;;;;;;;12.57;4.47;;;;;;;;;;5057527;28;20036;-59
2023/01/01 05:53:53;;;;;;;12.93;4.03;;;;;;;;;;5060110;28;20059;-58
2023/01/01 05:56:18;;;;;;;11.18;5.38;;;;;;;;;;5060446;28;20107;-58
2023/01/01 05:58:43;;;;;;;6.85;3.60;;;;;;;;;;5059607;28;20021;-58
2023/01/01 06:01:13;;;;;;;12.80;4.95;;;;;;;;;;5060018;28;20040;-58
2023/01/01 06:03:38;;;;;;;10.73;4.45;;;;;;;;;;5054391;28;20344;-58
2023/01/01 06:06:07;;;;;;;17.58;3.90;;;;;;;;;;5056884;28;20408;-58
2023/01/01 06:08:32;;;;;;;14.38;4.10;;;;;;;;;;5057558;28;20020;-58
2023/01/01 06:10:58;;;;;;;15.98;3.85;;;;;;;;;;5059760;28;20596;-58
2023/01/01 06:13:24;;;;;;;13.77;4.60;;;;;;;;;;5059840;28;20020;-58
2023/01/01 06:15:53;;;;;;;9.38;3.90;;;;;;;;;;5058351;28;20028;-58
2023/01/01 06:18:18;;;;;;;12.00;4.43;;;;;;;;;;5056150;28;20054;-58
2023/01/01 06:20:43;;;;;;;14.23;5.25;;;;;;;;;;5055334;28;20020;-58
2023/01/01 06:23:08;;;;;;;14.60;4.95;;;;;;;;;;5058251;28;20017;-58
2023/01/01 06:25:34;;;;;;;17.40;4.82;;;;;;;;;;5059714;28;20032;-58
2023/01/01 06:27:59;;;;;;;13.30;3.90;;;;;;;;;;5058903;28;20104;-58
2023/01/01 06:30:24;;;;;;;12.30;3.97;;;;;;;;;;5058919;28;20569;-58
2023/01/01 06:32:49;;;;;;;10.43;3.92;;;;;;;;;;5059558;28;20687;-57
2023/01/01 06:35:15;;;;;;;14.23;4.60;;;;;;;;;;5058535;28;20031;-58
2023/01/01 06:37:40;;;;;;;14.40;4.18;;;;;;;;;;5057114;28;20454;-58
2023/01/01 06:40:05;;;;;;;12.25;4.57;;;;;;;;;;5057436;28;20037;-57
2023/01/01 06:42:30;;;;;;;6.60;3.75;;;;;;;;;;5054362;28;20593;-57
2023/01/01 06:44:56;;;;;;;16.17;5.05;;;;;;;;;;5059277;28;20055;-57
2023/01/01 06:47:21;;;;;;;14.30;3.88;;;;;;;;;;5059407;28;20465;-57
2023/01/01 06:49:46;;;;;;;12.45;4.22;;;;;;;;;;5058960;28;20028;-58
2023/01/01 06:52:11;;;;;;;11.93;4.50;;;;;;;;;;5059363;28;20104;-57
2023/01/01 06:54:37;;;;;;;16.98;4.30;;;;;;;;;;5054792;28;20355;-57
2023/01/01 06:57:02;;;;;;;12.32;4.15;;;;;;;;;;5056866;28;20036;-57
2023/01/01 06:59:27;;;;;;;10.80;3.83;;;;;;;;;;5058910;28;20340;-57
2023/01/01 07:01:52;;;;;;;13.02;4.10;;;;;;;;;;5057092;28;20085;-58
2023/01/01 07:04:18;;;;;;;11.23;4.38;;;;;;;;;;5058369;28;20028;-57
2023/01/01 07:06:43;;;;;;;16.40;4.43;;;;;;;;;;5056670;28;20399;-57
2023/01/01 07:09:08;;;;;;;11.05;4.45;;;;;;;;;;5057532;28;20455;-58
2023/01/01 07:11:34;;;;;;;14.63;4.43;;;;;;;;;;5058631;28;20140;-57
2023/01/01 07:13:59;;;;;;;17.17;4.63;;;;;;;;;;5058340;28;20024;-57
2023/01/01 07:16:24;;;;;;;10.65;4.75;;;;;;;;;;5054761;28;20363;-57
2023/01/01 07:18:49;;;;;;;14.85;4.40;;;;;;;;;;5058456;28;20029;-59
2023/01/01 07:21:33;;;;;;;14.95;4.38;;;;;;;;;;5056725;28;20133;-57
2023/01/01 07:23:59;;;;;;;12.55;4.40;;;;;;;;;;5057048;28;20032;-57
2023/01/01 07:26:25;;;;;;;16.60;4.53;;;;;;;;;;5057433;28;20028;-57
2023/01/01 07:28:50;;;;;;;10.30;4.30;;;;;;;;;;5057834;28;20035;-59
2023/01/01 07:31:15;;;;;;;19.13;5.13;;;;;;;;;;5057121;28;20479;-58
2023/01/01 07:33:40;;;;;;;15.48;5.13;;;;;;;;;;5055685;28;20103;-58
2023/01/01 07:36:06;;;;;;;12.45;4.28;;;;;;;;;;5058554;28;20028;-58
2023/01/01 07:38:31;;;;;;;12.25;4.47;;;;;;;;;;5057686;28;20074;-58
2023/01/01 07:40:56;;;;;;;15.43;4.85;;;;;;;;;;5057355;28;20028;-59
2023/01/01 07:43:22;;;;;;;16.88;5.18;;;;;;;;;;5054900;28;20112;-58
2023/01/01 07:45:47;;;;;;;18.50;4.40;;;;;;;;;;5058158;28;20067;-59
2023/01/01 07:48:13;;;;;;;13.82;4.80;;;;;;;;;;5051112;28;20107;-58
2023/01/01 07:50:38;;;;;;;15.95;5.10;;;;;;;;;;5057312;28;20036;-59
2023/01/01 07:53:03;;;;;;;16.73;5.05;;;;;;;;;;5057561;28;20028;-59
2023/01/01 07:55:28;;;;;;;14.18;4.15;;;;;;;;;;5058045;28;20032;-58
2023/01/01 07:57:53;;;;;;;16.48;5.50;;;;;;;;;;5052264;28;20091;-58
2023/01/01 08:00:19;;;;;;;13.40;5.03;;;;;;;;;;5056394;28;20029;-58
2023/01/01 08:02:44;;;;;;;13.80;4.82;;;;;;;;;;5057039;28;20355;-58
2023/01/01 08:05:10;;;;;;;12.52;4.45;;;;;;;;;;5054472;28;20040;-58
2023/01/01 08:07:35;;;;;;;17.05;4.60;;;;;;;;;;5057626;28;20060;-58
2023/01/01 08:10:00;;;;;;;13.82;4.90;;;;;;;;;;5057278;28;20028;-58
2023/01/01 08:12:26;;;;;;;16.73;4.90;;;;;;;;;;5057566;28;20033;-58
2023/01/01 08:14:51;;;;;;;14.73;4.75;;;;;;;;;;5055847;28;20039;-58
2023/01/01 08:17:16;;;;;;;12.93;4.47;;;;;;;;;;5057316;28;20115;-58
2023/01/01 08:19:41;;;;;;;14.77;4.50;;;;;;;;;;5053367;28;20044;-59
2023/01/01 08:22:07;;;;;;;15.80;4.38;;;;;;;;;;5057826;28;20472;-58
2023/01/01 08:24:32;;;;;;;19.27;4.55;;;;;;;;;;5057450;28;20103;-58
2023/01/01 08:26:57;;;;;;;12.45;4.70;;;;;;;;;;5057154;28;20035;-58
2023/01/01 08:29:22;;;;;;;10.43;4.63;;;;;;;;;;5057583;28;20036;-58
2023/01/01 08:31:47;;;;;;;16.13;4.75;;;;;;;;;;5057730;28;20127;-58
2023/01/01 08:34:13;;;;;;;12.10;4.38;;;;;;;;;;5057159;28;20048;-58
2023/01/01 08:36:41;;;;;;;11.95;4.55;;;;;;;;;;5056226;28;20050;-58
2023/01/01 08:39:06;;;;;;;14.30;4.65;;;;;;;;;;5055645;28;20028;-58
2023/01/01 08:41:31;;;;;;;16.77;4.60;;;;;;;;;;5055408;28;20012;-58
2023/01/01 08:43:57;;;;;;;14.32;5.72;;;;;;;;;;5048666;28;20028;-58
2023/01/01 08:46:22;;;;;;;15.05;4.50;;;;;;;;;;5056071;28;20020;-58
2023/01/01 08:48:47;;;;;;;18.15;4.65;;;;;;;;;;5057428;28;20025;-58
2023/01/01 08:51:12;;;;;;;13.88;3.90;;;;;;;;;;5057314;28;20032;-58
2023/01/01 08:53:38;;;;;;;18.45;4.60;;;;;;;;;;5057317;28;20017;-58
2023/01/01 08:56:04;;;;;;;18.02;4.75;;;;;;;;;;5055508;28;20029;-58
2023/01/01 08:58:29;;;;;;;16.75;4.35;;;;;;;;;;5053698;28;20112;-58
2023/01/01 09:00:54;;;;;;;12.35;4.25;;;;;;;;;;5057314;28;20348;-58
2023/01/01 09:03:20;;;;;;;15.73;4.97;;;;;;;;;;5053188;28;20674;-58
2023/01/01 09:05:45;;;;;;;9.77;4.60;;;;;;;;;;5059106;28;20545;-58
2023/01/01 09:08:11;;;;;;;15.10;4.50;;;;;;;;;;5058160;28;20373;-58
2023/01/01 09:10:36;;;;;;;11.10;5.13;;;;;;;;;;5058890;28;20510;-58
2023/01/01 09:13:01;;;;;;;19.42;6.22;;;;;;;;;;5053192;28;20401;-58
2023/01/01 09:15:27;;;;;;;15.45;5.28;;;;;;;;;;5061193;28;20036;-58
2023/01/01 09:17:52;;;;;;;16.65;4.97;;;;;;;;;;5060593;28;20055;-58
2023/01/01 09:20:17;;;;;;;13.25;4.85;;;;;;;;;;5061231;28;20427;-58
2023/01/01 09:22:42;;;;;;;14.68;5.00;;;;;;;;;;5057992;28;20021;-58
2023/01/01 09:25:07;;;;;;;17.98;5.57;;;;;;;;;;5060386;28;20316;-58
2023/01/01 09:27:33;;;;;;;16.33;5.32;;;;;;;;;;5059238;28;20183;-58
2023/01/01 09:29:59;;;;;;;19.63;4.72;;;;;;;;;;5058466;28;20043;-60
2023/01/01 09:32:24;;;;;;;11.75;3.90;;;;;;;;;;5059003;28;20032;-59
2023/01/01 09:34:50;;;;;;;15.77;5.15;;;;;;;;;;5058194;28;20463;-59
2023/01/01 09:37:15;;;;;;;13.65;4.60;;;;;;;;;;5052175;28;20016;-58
2023/01/01 09:39:40;;;;;;;16.77;4.57;;;;;;;;;;5059451;28;20451;-59
2023/01/01 09:42:05;;;;;;;10.88;4.35;;;;;;;;;;5053486;28;20036;-58
2023/01/01 09:44:31;;;;;;;15.63;4.97;;;;;;;;;;5052957;28;20016;-59
2023/01/01 09:46:58;;;;;;;14.60;4.90;;;;;;;;;;5060199;28;20071;-59
2023/01/01 09:49:23;;;;;;;14.90;4.78;;;;;;;;;;5058663;28;20523;-59
2023/01/01 09:51:50;;;;;;;13.60;4.53;;;;;;;;;;5059232;28;20024;-58
2023/01/01 09:54:29;;;;;;;19.02;5.03;;;;;;;;;;5058760;28;20035;-59
2023/01/01 09:56:58;;;;;;;16.83;5.13;;;;;;;;;;5059373;28;20024;-58
2023/01/01 09:59:24;;;;;;;16.50;4.88;;;;;;;;;;5060362;28;20093;-59
2023/01/01 10:01:52;;;;;;;17.17;4.68;;;;;;;;;;5054934;28;20028;-59
2023/01/01 10:04:22;;;;;;;16.67;4.50;;;;;;;;;;5059621;28;20017;-59
2023/01/01 10:07:14;;;;;;;17.65;5.32;;;;;;;;;;5057809;28;20075;-58
2023/01/01 10:09:49;;;;;;;17.75;4.70;;;;;;;;;;5052690;28;20052;-58
2023/01/01 10:12:24;;;;;;;16.90;4.95;;;;;;;;;;5057366;28;20044;-58
2023/01/01 10:14:58;;;;;;;16.65;4.38;;;;;;;;;;5060355;28;20025;-59
2023/01/01 10:17:37;;;;;;;19.13;5.07;;;;;;;;;;5051582;28;20021;-58
2023/01/01 10:20:06;;;;;;;19.77;5.25;;;;;;;;;;5058256;28;20108;-59
2023/01/01 10:22:33;;;;;;;22.02;5.32;;;;;;;;;;5041026;28;20588;-59
2023/01/01 10:25:00;;;;;;;19.70;5.65;;;;;;;;;;5058736;28;20521;-57
2023/01/01 10:27:43;;;;;;;20.65;5.40;;;;;;;;;;5058886;28;20024;-57
2023/01/01 10:30:16;;;;;;;27.33;4.95;;;;;;;;;;5053378;28;20126;-57
2023/01/01 10:32:43;;;;;;;14.27;4.57;;;;;;;;;;5059510;28;20024;-58
2023/01/01 10:35:12;;;;;;;14.52;4.63;;;;;;;;;;5059297;28;20573;-61
2023/01/01 10:37:37;;;;;;;19.15;4.85;;;;;;;;;;5058948;28;20276;-59
2023/01/01 10:40:05;;;;;;;20.13;6.15;;;;;;;;;;5055745;28;20028;-59
2023/01/01 10:42:30;;;;;;;14.43;4.25;;;;;;;;;;5049037;28;20032;-58
2023/01/01 10:44:56;;;;;;;14.48;4.93;;;;;;;;;;5058217;28;20205;-58
2023/01/01 10:47:24;;;;;;;19.83;5.07;;;;;;;;;;5057902;28;20027;-60
2023/01/01 10:49:53;;;;;;;20.48;5.25;;;;;;;;;;5056001;28;20141;-58
2023/01/01 10:52:18;;;;;;;15.23;5.20;;;;;;;;;;5058577;28;20484;-58
2023/01/01 10:54:43;;;;;;;21.00;5.55;;;;;;;;;;5058309;28;20217;-59
2023/01/01 10:57:13;;;;;;;16.48;5.35;;;;;;;;;;5059019;28;20021;-58
2023/01/01 10:59:39;;;;;;;17.85;5.78;;;;;;;;;;5059275;28;20533;-58
2023/01/01 11:02:27;;;;;;;14.50;4.80;;;;;;;;;;5057834;28;20039;-59
2023/01/01 11:05:10;;;;;;;17.42;5.05;;;;;;;;;;5050096;28;20579;-59
2023/01/01 11:07:35;;;;;;;15.75;5.40;;;;;;;;;;5057890;28;20538;-59
2023/01/01 11:10:02;;;;;;;24.60;5.55;;;;;;;;;;5051268;28;20351;-59
2023/01/01 11:12:36;;;;;;;20.88;5.43;;;;;;;;;;5058801;28;20478;-59
2023/01/01 11:15:02;;;;;;;14.35;5.15;;;;;;;;;;5058346;28;20123;-59
2023/01/01 11:17:28;;;;;;;14.63;5.00;;;;;;;;;;5053492;28;20104;-59
2023/01/01 11:19:53;;;;;;;18.05;5.55;;;;;;;;;;5057890;28;20019;-59
2023/01/01 11:22:36;;;;;;;15.68;6.45;;;;;;;;;;5059532;28;20119;-60
2023/01/01 11:25:02;;;;;;;17.05;5.20;;;;;;;;;;5058876;28;20150;-58
2023/01/01 11:27:27;;;;;;;20.70;5.55;;;;;;;;;;5056717;28;20630;-60
2023/01/01 11:30:12;;;;;;;16.50;4.78;;;;;;;;;;5058170;28;20032;-59
2023/01/01 11:32:37;;;;;;;15.38;5.38;;;;;;;;;;5058137;28;20292;-60
2023/01/01 11:35:05;;;;;;;26.83;5.60;;;;;;;;;;5058732;28;20156;-59
2023/01/01 11:37:32;;;;;;;18.38;5.90;;;;;;;;;;5058913;28;20510;-57
2023/01/01 11:39:58;;;;;;;19.75;5.38;;;;;;;;;;5056142;28;20063;-59
2023/01/01 11:42:23;;;;;;;20.02;6.40;;;;;;;;;;5054284;28;20498;-59
2023/01/01 11:44:57;;;;;;;17.27;5.75;;;;;;;;;;5057422;28;20016;-60
2023/01/01 11:47:37;;;;;;;23.80;7.18;;;;;;;;;;5058698;28;20024;-58
2023/01/01 11:50:04;;;;;;;20.60;8.93;;;;;;;;;;5056224;28;20132;-58
2023/01/01 11:52:34;;;;;;;21.45;7.95;;;;;;;;;;5050681;28;20036;-62
2023/01/01 11:55:00;;;;;;;29.50;9.40;;;;;;;;;;5054463;28;20032;-60
2023/01/01 11:57:26;;;;;;;27.98;11.27;;;;;;;;;;5056773;28;20055;-59
2023/01/01 11:59:53;;;;;;;28.88;9.27;;;;;;;;;;5058593;28;20736;-59
2023/01/01 12:02:22;;;;;;;20.75;9.40;;;;;;;;;;5056256;28;20365;-59
2023/01/01 12:04:49;;;;;;;18.63;9.20;;;;;;;;;;5054435;28;20146;-59
2023/01/01 12:07:18;;;;;;;22.42;8.05;;;;;;;;;;5057936;28;20049;-60
2023/01/01 12:09:43;;;;;;;20.05;5.63;;;;;;;;;;5056518;28;20140;-59
2023/01/01 12:12:09;;;;;;;17.52;7.70;;;;;;;;;;5057578;28;20669;-60
2023/01/01 12:14:37;;;;;;;15.30;6.57;;;;;;;;;;5058002;28;20025;-60
2023/01/01 12:17:21;;;;;;;23.13;7.35;;;;;;;;;;5054544;28;20017;-59
2023/01/01 12:19:46;;;;;;;17.10;6.18;;;;;;;;;;5055859;28;20056;-59
2023/01/01 12:22:14;;;;;;;18.75;6.20;;;;;;;;;;5058707;28;20173;-60
2023/01/01 12:24:39;;;;;;;17.45;7.15;;;;;;;;;;5056864;28;20052;-59
2023/01/01 12:27:17;;;;;;;21.95;9.18;;;;;;;;;;5055261;28;20074;-59
2023/01/01 12:29:46;;;;;;;17.10;6.25;;;;;;;;;;5056321;28;20027;-59
2023/01/01 12:32:30;;;;;;;19.52;6.28;;;;;;;;;;5038161;28;20024;-59
2023/01/01 12:35:14;;;;;;;12.73;4.97;;;;;;;;;;5056467;28;20443;-59
2023/01/01 12:37:49;;;;;;;15.38;6.35;;;;;;;;;;5048780;28;20519;-59
2023/01/01 12:40:17;;;;;;;19.15;5.97;;;;;;;;;;5045717;28;20296;-59
2023/01/01 12:42:45;;;;;;;15.45;7.05;;;;;;;;;;5052852;28;20056;-59
2023/01/01 12:45:26;;;;;;;17.90;5.38;;;;;;;;;;5054328;28;20020;-59
2023/01/01 12:47:52;;;;;;;21.40;6.38;;;;;;;;;;5054683;28;20051;-59
2023/01/01 12:50:17;;;;;;;17.60;5.40;;;;;;;;;;5057378;28;20115;-59
2023/01/01 12:52:48;;;;;;;14.35;6.28;;;;;;;;;;5057293;28;20031;-59
2023/01/01 12:55:32;;;;;;;16.52;5.15;;;;;;;;;;5054004;28;20024;-59
2023/01/01 12:58:00;;;;;;;20.73;5.68;;;;;;;;;;5053142;28;20028;-58
2023/01/01 13:00:25;;;;;;;20.58;5.90;;;;;;;;;;5056328;28;20031;-59
2023/01/01 13:02:59;;;;;;;19.88;5.97;;;;;;;;;;5057377;28;20477;-59
2023/01/01 13:05:26;;;;;;;24.60;5.85;;;;;;;;;;5051823;28;20047;-59
2023/01/01 13:07:52;;;;;;;21.63;5.25;;;;;;;;;;5056021;28;20028;-59
2023/01/01 13:10:33;;;;;;;22.55;5.32;;;;;;;;;;5054717;28;20081;-59
2023/01/01 13:12:58;;;;;;;10.73;4.65;;;;;;;;;;5053673;28;20033;-59
2023/01/01 13:15:47;;;;;;;23.25;4.85;;;;;;;;;;5053944;28;20020;-59
2023/01/01 13:18:12;;;;;;;27.60;6.60;;;;;;;;;;5057859;28;20032;-59
2023/01/01 13:20:41;;;;;;;21.05;5.32;;;;;;;;;;5056410;28;20032;-59
2023/01/01 13:23:26;;;;;;;14.50;5.28;;;;;;;;;;5056000;28;20036;-59
2023/01/01 13:26:11;;;;;;;20.10;5.53;;;;;;;;;;5056127;28;20026;-59
2023/01/01 13:28:37;;;;;;;24.10;6.07;;;;;;;;;;5053302;28;20021;-59
2023/01/01 13:31:02;;;;;;;18.48;6.90;;;;;;;;;;5056290;28;20036;-58
2023/01/01 13:33:28;;;;;;;28.30;7.15;;;;;;;;;;5056619;28;20021;-59
2023/01/01 13:36:11;;;;;;;20.60;6.75;;;;;;;;;;5056710;28;20028;-59
2023/01/01 13:38:43;;;;;;;26.55;8.52;;;;;;;;;;5054078;28;20462;-59
2023/01/01 13:41:27;;;;;;;27.80;8.38;;;;;;;;;;5054866;28;20034;-59
2023/01/01 13:43:53;;;;;;;21.10;6.35;;;;;;;;;;5050331;28;20025;-59
2023/01/01 13:46:21;;;;;;;24.48;6.03;;;;;;;;;;5051304;28;20028;-59
2023/01/01 13:49:10;;;;;;;17.15;5.50;;;;;;;;;;5056704;28;20403;-59
2023/01/01 13:51:41;;;;;;;25.25;6.47;;;;;;;;;;5046181;28;20494;-59
2023/01/01 13:54:09;;;;;;;15.95;5.85;;;;;;;;;;5060398;28;20027;-59
2023/01/01 13:56:46;;;;;;;15.95;6.15;;;;;;;;;;5060117;28;20077;-59
2023/01/01 13:59:31;;;;;;;16.42;6.25;;;;;;;;;;5046360;28;20418;-59
2023/01/01 14:02:00;;;;;;;15.65;5.25;;;;;;;;;;5053712;28;20758;-58
2023/01/01 14:04:28;;;;;;;17.25;6.00;;;;;;;;;;5058591;28;20024;-58
2023/01/01 14:06:54;;;;;;;19.17;6.68;;;;;;;;;;5059637;28;20563;-59
2023/01/01 14:09:22;;;;;;;15.98;5.25;;;;;;;;;;5057295;28;20029;-59
2023/01/01 14:11:48;;;;;;;20.13;6.22;;;;;;;;;;5053977;28;20463;-59
2023/01/01 14:14:23;;;;;;;19.48;6.30;;;;;;;;;;5053367;28;20039;-59
2023/01/01 14:16:52;;;;;;;20.95;5.82;;;;;;;;;;5054739;28;20055;-58
2023/01/01 14:19:17;;;;;;;18.13;5.57;;;;;;;;;;5064504;28;20104;-59
2023/01/01 14:21:43;;;;;;;25.27;6.70;;;;;;;;;;5054245;28;20039;-58
2023/01/01 14:24:09;;;;;;;12.38;5.20;;;;;;;;;;5053724;28;20413;-59
2023/01/01 14:26:35;;;;;;;16.27;5.53;;;;;;;;;;5053874;28;20024;-59
2023/01/01 14:29:02;;;;;;;20.77;5.10;;;;;;;;;;5054640;28;20152;-59
2023/01/01 14:31:33;;;;;;;19.50;5.40;;;;;;;;;;5051712;28;20047;-61
2023/01/01 14:33:58;;;;;;;14.40;5.43;;;;;;;;;;5062328;28;20044;-59
2023/01/01 14:36:27;;;;;;;16.65;5.47;;;;;;;;;;5060294;28;20143;-60
2023/01/01 14:38:53;;;;;;;18.70;5.70;;;;;;;;;;5057910;28;20016;-60
2023/01/01 14:41:28;;;;;;;20.83;5.60;;;;;;;;;;5057820;28;20391;-60
2023/01/01 14:43:54;;;;;;;16.67;6.25;;;;;;;;;;5061345;28;20124;-60